createdAt,value
2023-04-03T00:01:39.283Z,1.60
2023-04-03T00:04:29.606Z,1.60
2023-04-03T00:07:16.757Z,1.70
2023-04-03T00:10:04.769Z,1.70
2023-04-03T00:12:52.282Z,1.60
2023-04-03T00:15:41.817Z,1.60
2023-04-03T00:18:29.159Z,1.60
2023-04-03T00:21:16.616Z,1.60
2023-04-03T00:24:03.939Z,1.60
2023-04-03T00:26:51.355Z,1.50
2023-04-03T00:29:38.840Z,1.50
2023-04-03T00:32:27.848Z,1.50
2023-04-03T00:35:16.801Z,1.40
2023-04-03T00:38:04.116Z,1.50
2023-04-03T00:40:51.683Z,1.50
2023-04-03T00:43:39.511Z,1.40
2023-04-03T00:46:26.804Z,1.50
2023-04-03T00:49:15.906Z,1.50
2023-04-03T00:52:03.758Z,1.50
2023-04-03T00:54:54.173Z,1.50
2023-04-03T00:57:42.211Z,1.40
2023-04-03T01:00:30.334Z,1.30
2023-04-03T01:03:18.041Z,1.30
2023-04-03T01:06:06.985Z,1.40
2023-04-03T01:08:54.922Z,1.40
2023-04-03T01:11:42.066Z,1.40
2023-04-03T01:14:29.540Z,1.40
2023-04-03T01:17:30.803Z,1.40
2023-04-03T01:21:12.355Z,1.40
2023-04-03T01:24:22.040Z,1.40
2023-04-03T01:27:11.787Z,1.40
2023-04-03T01:29:59.805Z,1.30
2023-04-03T01:32:48.668Z,1.30
2023-04-03T01:35:36.300Z,1.20
2023-04-03T01:38:23.731Z,1.20
2023-04-03T01:41:11.167Z,1.30
2023-04-03T01:43:58.462Z,1.20
2023-04-03T01:46:45.862Z,1.20
2023-04-03T01:49:34.583Z,1.20
2023-04-03T01:52:21.731Z,1.20
2023-04-03T01:55:09.820Z,1.20
2023-04-03T01:57:57.230Z,1.20
2023-04-03T02:00:45.426Z,1.20
2023-04-03T02:03:32.871Z,1.10
2023-04-03T02:06:21.699Z,0.90
2023-04-03T02:09:08.971Z,1.10
2023-04-03T02:11:56.089Z,1.00
2023-04-03T02:14:43.651Z,1.10
2023-04-03T02:17:33.293Z,1.10
2023-04-03T02:20:21.392Z,1.10
2023-04-03T02:23:09.827Z,1.10
2023-04-03T02:26:05.561Z,1.10
2023-04-03T02:28:52.849Z,1.00
2023-04-03T02:31:40.331Z,1.00
2023-04-03T02:34:27.792Z,1.00
2023-04-03T02:37:15.793Z,1.10
2023-04-03T02:40:08.921Z,1.00
2023-04-03T02:42:57.098Z,1.00
2023-04-03T02:45:46.222Z,1.00
2023-04-03T02:48:34.008Z,0.90
2023-04-03T02:51:21.073Z,0.80
2023-04-03T02:54:08.604Z,0.90
2023-04-03T02:57:00.334Z,0.80
2023-04-03T02:59:47.590Z,0.80
2023-04-03T03:02:35.023Z,0.80
2023-04-03T03:05:22.457Z,0.90
2023-04-03T03:08:09.679Z,0.90
2023-04-03T03:10:57.180Z,0.90
2023-04-03T03:13:46.181Z,0.80
2023-04-03T03:16:33.373Z,0.80
2023-04-03T03:19:20.835Z,0.80
2023-04-03T03:22:08.218Z,0.80
2023-04-03T03:24:55.758Z,0.70
2023-04-03T03:27:43.088Z,0.70
2023-04-03T03:30:32.032Z,0.50
2023-04-03T03:33:19.297Z,0.50
2023-04-03T03:36:07.045Z,0.50
2023-04-03T03:38:54.635Z,0.40
2023-04-03T03:41:42.041Z,0.40
2023-04-03T03:44:30.018Z,0.30
2023-04-03T03:47:18.765Z,0.40
2023-04-03T03:50:07.676Z,0.40
2023-04-03T03:52:55.290Z,0.30
2023-04-03T03:55:42.830Z,0.30
2023-04-03T03:58:30.572Z,0.30
2023-04-03T04:01:18.934Z,0.30
2023-04-03T04:04:10.099Z,0.20
2023-04-03T04:06:58.296Z,0.20
2023-04-03T04:09:45.781Z,0.20
2023-04-03T04:12:33.182Z,0.20
2023-04-03T04:15:22.481Z,0.20
2023-04-03T04:18:10.175Z,0.20
2023-04-03T04:20:59.595Z,0.20
2023-04-03T04:23:47.287Z,0.20
2023-04-03T04:26:36.203Z,0.20
2023-04-03T04:29:23.839Z,0.20
2023-04-03T04:32:12.683Z,0.20
2023-04-03T04:35:00.271Z,0.20
2023-04-03T04:37:50.866Z,0.20
2023-04-03T04:40:39.137Z,0.20
2023-04-03T04:43:27.623Z,0.20
2023-04-03T04:46:16.321Z,0.20
2023-04-03T04:49:09.269Z,0.10
2023-04-03T04:51:56.662Z,0.10
2023-04-03T04:54:50.538Z,0.20
2023-04-03T04:57:39.800Z,0.20
2023-04-03T05:00:27.471Z,0.10
2023-04-03T05:03:17.006Z,0.20
2023-04-03T05:06:05.654Z,0.20
2023-04-03T05:08:54.835Z,0.20
2023-04-03T05:11:44.169Z,0.20
2023-04-03T05:14:33.245Z,0.20
2023-04-03T05:17:25.159Z,0.30
2023-04-03T05:20:16.190Z,0.30
2023-04-03T05:23:06.492Z,0.40
2023-04-03T05:25:56.057Z,0.40
2023-04-03T05:28:45.249Z,0.50
2023-04-03T05:31:33.137Z,0.50
2023-04-03T05:34:21.114Z,0.60
2023-04-03T05:37:11.452Z,0.70
2023-04-03T05:39:59.435Z,0.70
2023-04-03T05:42:48.025Z,0.80
2023-04-03T05:45:38.236Z,0.90
2023-04-03T05:48:26.453Z,1.00
2023-04-03T05:51:17.516Z,1.00
2023-04-03T05:54:11.556Z,1.00
2023-04-03T05:56:58.988Z,1.10
2023-04-03T05:59:48.591Z,1.20
2023-04-03T06:02:38.089Z,1.30
2023-04-03T06:05:25.810Z,1.40
2023-04-03T06:08:13.480Z,1.40
2023-04-03T06:11:00.871Z,1.60
2023-04-03T06:13:48.898Z,1.80
2023-04-03T06:16:39.397Z,1.90
2023-04-03T06:19:29.793Z,2.10
2023-04-03T06:22:18.442Z,2.20
2023-04-03T06:25:08.353Z,2.00
2023-04-03T06:27:56.498Z,2.30
2023-04-03T06:30:43.941Z,2.50
2023-04-03T06:33:31.708Z,2.50
2023-04-03T06:36:22.076Z,2.80
2023-04-03T06:39:09.440Z,2.90
2023-04-03T06:41:56.874Z,2.90
2023-04-03T06:44:55.186Z,3.00
2023-04-03T06:47:42.863Z,3.30
2023-04-03T06:50:30.527Z,3.20
2023-04-03T06:53:19.239Z,3.40
2023-04-03T06:56:07.207Z,3.40
2023-04-03T06:58:55.743Z,3.50
2023-04-03T07:01:43.741Z,3.20
2023-04-03T07:04:30.905Z,3.90
2023-04-03T07:07:18.622Z,3.50
2023-04-03T07:10:08.971Z,3.70
2023-04-03T07:12:56.370Z,4.00
2023-04-03T07:15:43.909Z,4.10
2023-04-03T07:18:31.474Z,4.40
2023-04-03T07:21:18.664Z,4.50
2023-04-03T07:24:06.039Z,4.50
2023-04-03T07:26:55.120Z,5.00
2023-04-03T07:29:43.779Z,5.50
2023-04-03T07:32:31.996Z,4.90
2023-04-03T07:35:19.872Z,5.10
2023-04-03T07:38:07.730Z,4.50
2023-04-03T07:40:55.325Z,5.00
2023-04-03T07:43:44.190Z,5.60
2023-04-03T07:46:31.420Z,5.20
2023-04-03T07:49:19.049Z,5.40
2023-04-03T07:52:06.423Z,5.20
2023-04-03T07:54:53.908Z,5.40
2023-04-03T07:57:42.137Z,5.10
2023-04-03T08:00:31.324Z,5.50
2023-04-03T08:03:18.816Z,5.50
2023-04-03T08:06:11.730Z,5.10
2023-04-03T08:09:02.800Z,4.80
2023-04-03T08:11:50.612Z,4.50
2023-04-03T08:14:37.764Z,4.30
2023-04-03T08:17:27.192Z,4.40
2023-04-03T08:20:14.329Z,4.20
2023-04-03T08:23:01.645Z,4.20
2023-04-03T08:25:49.047Z,4.50
2023-04-03T08:28:36.459Z,4.60
2023-04-03T08:31:24.023Z,4.50
2023-04-03T08:34:12.615Z,5.50
2023-04-03T08:36:59.756Z,5.90
2023-04-03T08:39:48.672Z,5.90
2023-04-03T08:42:51.854Z,5.80
2023-04-03T08:45:46.375Z,5.60
2023-04-03T08:48:36.826Z,5.80
2023-04-03T08:51:26.779Z,6.50
2023-04-03T08:54:23.953Z,5.80
2023-04-03T08:57:13.265Z,5.60
2023-04-03T09:00:05.266Z,5.50
2023-04-03T09:02:54.239Z,5.40
2023-04-03T09:05:46.272Z,5.30
2023-04-03T09:08:42.793Z,5.30
2023-04-03T09:11:43.227Z,5.10
2023-04-03T09:14:38.026Z,4.80
2023-04-03T09:17:35.556Z,4.90
2023-04-03T09:20:28.903Z,5.00
2023-04-03T09:23:23.844Z,4.90
2023-04-03T09:26:20.167Z,4.60
2023-04-03T09:29:09.567Z,5.30
2023-04-03T09:32:01.712Z,5.40
2023-04-03T09:34:51.034Z,5.60
2023-04-03T09:37:42.658Z,5.40
2023-04-03T09:40:39.763Z,4.80
2023-04-03T09:43:40.232Z,5.40
2023-04-03T09:46:32.810Z,5.50
2023-04-03T09:49:21.233Z,5.40
2023-04-03T09:52:21.695Z,6.10
2023-04-03T09:55:15.529Z,5.90
2023-04-03T09:58:05.438Z,5.90
2023-04-03T10:00:58.712Z,5.60
2023-04-03T10:03:47.646Z,5.70
2023-04-03T10:06:37.452Z,5.30
2023-04-03T10:09:26.434Z,5.20
2023-04-03T10:12:15.516Z,5.20
2023-04-03T10:15:03.294Z,5.80
2023-04-03T10:17:58.873Z,5.60
2023-04-03T10:20:50.429Z,5.90
2023-04-03T10:23:44.484Z,6.30
2023-04-03T10:26:38.443Z,6.10
2023-04-03T10:29:44.788Z,6.30
2023-04-03T10:32:47.127Z,6.20
2023-04-03T10:35:47.135Z,5.70
2023-04-03T10:38:44.058Z,5.90
2023-04-03T10:41:44.579Z,6.10
2023-04-03T10:44:43.536Z,6.00
2023-04-03T10:47:39.674Z,5.90
2023-04-03T10:50:41.807Z,5.80
2023-04-03T10:53:36.892Z,5.60
2023-04-03T10:56:32.518Z,5.30
2023-04-03T10:59:28.249Z,5.30
2023-04-03T11:02:25.036Z,5.40
2023-04-03T11:05:20.448Z,5.20
2023-04-03T11:08:17.873Z,5.80
2023-04-03T11:11:09.436Z,6.00
2023-04-03T11:14:03.054Z,6.10
2023-04-03T11:16:59.748Z,6.00
2023-04-03T11:19:52.567Z,5.70
2023-04-03T11:22:44.253Z,5.50
2023-04-03T11:25:36.106Z,5.40
2023-04-03T11:28:23.869Z,5.20
2023-04-03T11:31:21.031Z,5.30
2023-04-03T11:34:25.755Z,5.70
2023-04-03T11:37:23.090Z,5.90
2023-04-03T11:40:23.560Z,6.10
2023-04-03T11:43:26.489Z,6.30
2023-04-03T11:46:13.945Z,6.00
2023-04-03T11:49:01.136Z,5.50
2023-04-03T11:51:48.666Z,5.80
2023-04-03T11:54:50.761Z,5.90
2023-04-03T11:58:06.405Z,5.50
2023-04-03T12:01:05.393Z,5.50
2023-04-03T12:04:15.925Z,5.70
2023-04-03T12:07:27.295Z,5.60
2023-04-03T12:10:31.238Z,5.60
2023-04-03T12:13:20.755Z,5.60
2023-04-03T12:16:20.562Z,5.60
2023-04-03T12:19:42.586Z,5.60
2023-04-03T12:22:30.784Z,5.60
2023-04-03T12:25:50.714Z,5.80
2023-04-03T12:28:43.175Z,5.90
2023-04-03T12:31:46.147Z,5.60
2023-04-03T12:34:55.493Z,5.40
2023-04-03T12:37:55.113Z,5.40
2023-04-03T12:40:48.629Z,5.40
2023-04-03T12:43:49.936Z,5.40
2023-04-03T12:46:44.223Z,5.60
2023-04-03T12:49:39.300Z,5.70
2023-04-03T12:52:36.588Z,5.70
2023-04-03T12:55:24.612Z,5.70
2023-04-03T12:58:22.973Z,5.60
2023-04-03T13:01:15.047Z,5.60
2023-04-03T13:04:05.098Z,5.60
2023-04-03T13:06:53.307Z,5.80
2023-04-03T13:09:40.610Z,5.70
2023-04-03T13:12:29.739Z,5.30
2023-04-03T13:15:20.603Z,5.50
2023-04-03T13:18:07.874Z,5.50
2023-04-03T13:21:03.432Z,5.70
2023-04-03T13:24:00.552Z,5.80
2023-04-03T13:26:52.924Z,5.80
2023-04-03T13:29:41.357Z,5.80
2023-04-03T13:32:31.404Z,5.90
2023-04-03T13:35:45.947Z,5.80
2023-04-03T13:38:37.254Z,6.00
2023-04-03T13:41:28.198Z,6.00
2023-04-03T13:44:27.660Z,5.70
2023-04-03T13:47:21.512Z,5.50
2023-04-03T13:50:18.118Z,5.30
2023-04-03T13:53:13.704Z,5.20
2023-04-03T13:56:09.172Z,5.30
2023-04-03T13:59:00.312Z,5.20
2023-04-03T14:01:50.694Z,5.10
2023-04-03T14:04:51.669Z,5.10
2023-04-03T14:07:39.057Z,5.10
2023-04-03T14:10:26.306Z,5.30
2023-04-03T14:13:17.324Z,5.20
2023-04-03T14:16:15.167Z,5.20
2023-04-03T14:19:03.126Z,5.30
2023-04-03T14:21:51.847Z,5.30
2023-04-03T14:24:39.481Z,5.30
2023-04-03T14:27:30.204Z,5.20
2023-04-03T14:30:22.078Z,5.30
2023-04-03T14:33:14.618Z,5.40
2023-04-03T14:36:03.177Z,5.50
2023-04-03T14:38:51.939Z,5.50
2023-04-03T14:41:39.176Z,5.50
2023-04-03T14:44:26.351Z,5.60
2023-04-03T14:47:29.918Z,6.20
2023-04-03T14:50:21.976Z,5.90
2023-04-03T14:53:13.792Z,5.80
2023-04-03T14:56:01.042Z,5.70
2023-04-03T14:58:51.224Z,5.40
2023-04-03T15:01:38.661Z,5.30
2023-04-03T15:04:28.974Z,5.20
2023-04-03T15:07:17.033Z,5.10
2023-04-03T15:10:16.631Z,5.20
2023-04-03T15:13:04.322Z,5.30
2023-04-03T15:15:52.479Z,5.20
2023-04-03T15:18:40.377Z,5.20
2023-04-03T15:21:29.040Z,5.00
2023-04-03T15:24:16.472Z,4.90
2023-04-03T15:27:04.189Z,4.80
2023-04-03T15:29:51.338Z,4.70
2023-04-03T15:32:38.925Z,4.60
2023-04-03T15:35:26.486Z,4.60
2023-04-03T15:38:14.896Z,4.60
2023-04-03T15:41:02.734Z,4.60
2023-04-03T15:43:50.290Z,4.60
2023-04-03T15:46:38.269Z,4.60
2023-04-03T15:49:25.797Z,4.60
2023-04-03T15:52:13.151Z,4.50
2023-04-03T15:55:02.537Z,4.50
2023-04-03T15:57:50.165Z,4.60
2023-04-03T16:00:38.512Z,4.50
2023-04-03T16:03:26.188Z,4.50
2023-04-03T16:06:13.976Z,4.50
2023-04-03T16:09:01.784Z,4.50
2023-04-03T16:11:50.280Z,4.50
2023-04-03T16:14:37.287Z,4.50
2023-04-03T16:17:24.871Z,4.40
2023-04-03T16:20:15.070Z,4.20
2023-04-03T16:23:02.897Z,4.30
2023-04-03T16:25:50.796Z,4.40
2023-04-03T16:28:39.237Z,4.40
2023-04-03T16:31:27.562Z,4.60
2023-04-03T16:34:14.994Z,4.80
2023-04-03T16:37:02.475Z,4.90
2023-04-03T16:39:49.863Z,4.90
2023-04-03T16:42:38.040Z,5.00
2023-04-03T16:45:27.087Z,4.80
2023-04-03T16:48:15.024Z,4.80
2023-04-03T16:51:02.324Z,4.80
2023-04-03T16:53:49.649Z,4.80
2023-04-03T16:56:37.068Z,4.80
2023-04-03T16:59:24.562Z,4.70
2023-04-03T17:02:12.985Z,4.60
2023-04-03T17:05:00.192Z,4.60
2023-04-03T17:07:47.617Z,4.60
2023-04-03T17:10:36.368Z,4.40
2023-04-03T17:13:23.724Z,4.40
2023-04-03T17:16:14.119Z,4.20
2023-04-03T17:19:02.857Z,4.20
2023-04-03T17:21:50.311Z,4.20
2023-04-03T17:24:37.922Z,4.20
2023-04-03T17:27:25.439Z,4.20
2023-04-03T17:30:13.573Z,4.20
2023-04-03T17:33:00.738Z,4.20
2023-04-03T17:35:49.726Z,4.20
2023-04-03T17:38:37.742Z,4.40
2023-04-03T17:41:26.133Z,4.30
2023-04-03T17:44:13.914Z,4.30
2023-04-03T17:47:01.402Z,4.30
2023-04-03T17:49:48.852Z,4.20
2023-04-03T17:52:37.637Z,4.20
2023-04-03T17:55:24.967Z,4.20
2023-04-03T17:58:12.273Z,4.10
2023-04-03T18:00:59.535Z,4.00
2023-04-03T18:03:48.422Z,4.10
2023-04-03T18:06:40.973Z,4.00
2023-04-03T18:09:33.587Z,4.10
2023-04-03T18:12:21.421Z,4.00
2023-04-03T18:15:09.554Z,4.00
2023-04-03T18:17:57.989Z,3.90
2023-04-03T18:20:46.376Z,4.00
2023-04-03T18:23:36.689Z,4.00
2023-04-03T18:26:28.742Z,4.10
2023-04-03T18:29:16.450Z,3.90
2023-04-03T18:32:04.920Z,3.80
2023-04-03T18:34:52.292Z,3.90
2023-04-03T18:37:40.093Z,3.90
2023-04-03T18:40:27.596Z,3.80
2023-04-03T18:43:16.545Z,3.80
2023-04-03T18:46:05.130Z,3.70
2023-04-03T18:48:53.826Z,3.70
2023-04-03T18:51:41.146Z,3.60
2023-04-03T18:54:28.191Z,3.60
2023-04-03T18:57:15.540Z,3.60
2023-04-03T19:00:05.271Z,3.80
2023-04-03T19:02:53.100Z,3.60
2023-04-03T19:05:41.002Z,3.60
2023-04-03T19:08:29.280Z,3.50
2023-04-03T19:11:16.507Z,3.50
2023-04-03T19:14:15.176Z,3.40
2023-04-03T19:17:07.328Z,3.50
2023-04-03T19:19:54.348Z,3.40
2023-04-03T19:22:42.088Z,3.40
2023-04-03T19:25:29.481Z,3.30
2023-04-03T19:28:16.994Z,3.40
2023-04-03T19:31:04.913Z,3.30
2023-04-03T19:33:53.758Z,3.30
2023-04-03T19:36:42.210Z,3.30
2023-04-03T19:39:31.380Z,3.20
2023-04-03T19:42:19.349Z,3.20
2023-04-03T19:45:08.354Z,3.20
2023-04-03T19:47:55.843Z,3.30
2023-04-03T19:50:44.377Z,3.10
2023-04-03T19:53:31.612Z,3.20
2023-04-03T19:56:21.196Z,3.20
2023-04-03T19:59:08.532Z,3.20
2023-04-03T20:01:56.015Z,3.30
2023-04-03T20:04:43.254Z,3.20
2023-04-03T20:07:31.841Z,3.20
2023-04-03T20:10:19.571Z,3.20
2023-04-03T20:13:09.486Z,3.20
2023-04-03T20:15:57.702Z,3.10
2023-04-03T20:18:46.194Z,3.20
2023-04-03T20:21:35.356Z,3.20
2023-04-03T20:24:24.061Z,3.10
2023-04-03T20:27:11.224Z,3.10
2023-04-03T20:29:58.716Z,3.00
2023-04-03T20:32:46.257Z,3.00
2023-04-03T20:35:34.276Z,3.00
2023-04-03T20:38:22.222Z,3.00
2023-04-03T20:41:11.242Z,3.00
2023-04-03T20:44:00.341Z,3.00
2023-04-03T20:46:52.994Z,3.00
2023-04-03T20:49:43.388Z,2.90
2023-04-03T20:52:30.779Z,3.00
2023-04-03T20:55:18.399Z,2.90
2023-04-03T20:58:07.625Z,2.80
2023-04-03T21:00:56.476Z,2.80
2023-04-03T21:03:46.197Z,2.80
2023-04-03T21:07:10.865Z,2.80
2023-04-03T21:10:35.739Z,2.70
2023-04-03T21:14:01.088Z,2.70
2023-04-03T21:16:48.061Z,2.70
2023-04-03T21:19:43.101Z,2.70
2023-04-03T21:22:30.586Z,2.70
2023-04-03T21:25:17.960Z,2.60
2023-04-03T21:28:05.659Z,2.60
2023-04-03T21:30:52.885Z,2.50
2023-04-03T21:33:40.722Z,2.60
2023-04-03T21:36:40.258Z,2.50
2023-04-03T21:39:28.232Z,2.60
2023-04-03T21:42:16.455Z,2.70
2023-04-03T21:45:03.939Z,2.60
2023-04-03T21:47:51.990Z,2.50
2023-04-03T21:50:39.970Z,2.40
2023-04-03T21:53:30.144Z,2.80
2023-04-03T21:56:17.490Z,2.30
2023-04-03T21:59:05.414Z,2.20
2023-04-03T22:01:53.019Z,2.30
2023-04-03T22:04:40.539Z,2.20
2023-04-03T22:07:27.979Z,2.20
2023-04-03T22:10:17.161Z,2.10
2023-04-03T22:13:04.642Z,2.10
2023-04-03T22:15:52.133Z,1.90
2023-04-03T22:18:39.975Z,1.90
2023-04-03T22:21:27.351Z,1.80
2023-04-03T22:24:16.546Z,1.80
2023-04-03T22:27:05.409Z,1.80
2023-04-03T22:29:52.587Z,1.80
2023-04-03T22:32:40.079Z,1.80
2023-04-03T22:35:27.908Z,1.70
2023-04-03T22:38:15.864Z,1.60
2023-04-03T22:41:05.377Z,1.60
2023-04-03T22:43:54.224Z,1.60
2023-04-03T22:46:41.550Z,1.60
2023-04-03T22:49:29.114Z,1.50
2023-04-03T22:52:16.539Z,1.50
2023-04-03T22:55:18.187Z,1.50
2023-04-03T22:58:06.692Z,1.50
2023-04-03T23:00:56.698Z,1.50
2023-04-03T23:03:43.958Z,1.50
2023-04-03T23:06:31.219Z,1.40
2023-04-03T23:09:18.680Z,1.40
2023-04-03T23:12:09.733Z,1.40
2023-04-03T23:14:57.210Z,1.30
2023-04-03T23:17:48.415Z,1.30
2023-04-03T23:20:35.518Z,1.30
2023-04-03T23:23:23.682Z,1.40
2023-04-03T23:26:12.263Z,1.40
2023-04-03T23:29:00.468Z,1.30
2023-04-03T23:31:47.530Z,1.30
2023-04-03T23:34:36.383Z,1.30
2023-04-03T23:37:23.613Z,1.30
2023-04-03T23:40:12.329Z,1.30
2023-04-03T23:42:59.557Z,1.10
2023-04-03T23:45:46.828Z,1.20
2023-04-03T23:48:34.352Z,1.10
2023-04-03T23:51:23.078Z,1.00
2023-04-03T23:54:10.065Z,1.10
2023-04-03T23:56:59.634Z,1.10
2023-04-03T23:59:46.676Z,1.00
